Time;durP1;ratioP1;P1;durP2;ratioP2;P2;SDS_P1;SDS_P2;PMS_P1;PMS_P2;Temp;Humidity;BMP_temperature;BMP_pressure;BME280_temperature;BME280_humidity;BME280_pressure;Samples;Min_cycle;Max_cycle;Signal;HPM_P1;HPM_P2
2022/10/27 00:00:38;;;;;;;20.48;14.32;;;;;;;;;;5057043;28;20100;-74
2022/10/27 00:03:04;;;;;;;19.73;14.50;;;;;;;;;;5038966;28;20130;-74
2022/10/27 00:05:29;;;;;;;19.10;14.52;;;;;;;;;;5056871;28;20493;-74
2022/10/27 00:07:55;;;;;;;19.02;14.25;;;;;;;;;;5039500;28;20028;-74
2022/10/27 00:10:21;;;;;;;22.17;15.32;;;;;;;;;;5056882;28;20021;-77
2022/10/27 00:12:46;;;;;;;19.65;14.15;;;;;;;;;;5038830;28;20388;-76
2022/10/27 00:15:12;;;;;;;22.48;15.27;;;;;;;;;;5056697;28;20025;-75
2022/10/27 00:17:37;;;;;;;24.25;15.20;;;;;;;;;;5057217;28;20021;-74
2022/10/27 00:20:03;;;;;;;20.23;15.13;;;;;;;;;;5056882;28;20411;-76
2022/10/27 00:22:29;;;;;;;20.33;14.55;;;;;;;;;;5038627;28;20024;-74
2022/10/27 00:24:54;;;;;;;24.08;16.77;;;;;;;;;;5056725;28;20021;-75
2022/10/27 00:27:19;;;;;;;23.75;14.93;;;;;;;;;;5039024;28;20160;-75
2022/10/27 00:29:45;;;;;;;23.55;15.15;;;;;;;;;;5039229;28;20024;-75
2022/10/27 00:32:10;;;;;;;23.70;15.32;;;;;;;;;;5039099;28;20369;-74
2022/10/27 00:34:36;;;;;;;25.73;15.05;;;;;;;;;;5056223;28;20103;-77
2022/10/27 00:37:01;;;;;;;25.48;14.85;;;;;;;;;;5057058;28;20449;-77
2022/10/27 00:39:26;;;;;;;20.40;14.40;;;;;;;;;;5038360;28;20056;-77
2022/10/27 00:41:52;;;;;;;19.52;14.13;;;;;;;;;;5038321;28;20155;-76
2022/10/27 00:44:28;;;;;;;22.77;14.43;;;;;;;;;;5056424;28;20452;-75
2022/10/27 00:46:54;;;;;;;22.02;14.75;;;;;;;;;;5055546;28;20421;-74
2022/10/27 00:49:22;;;;;;;19.83;13.68;;;;;;;;;;5056061;28;20033;-74
2022/10/27 00:51:50;;;;;;;21.27;14.20;;;;;;;;;;5038169;28;20053;-74
2022/10/27 00:54:16;;;;;;;21.90;13.40;;;;;;;;;;5038025;28;20025;-74
2022/10/27 00:56:43;;;;;;;19.45;13.73;;;;;;;;;;5038041;28;20032;-75
2022/10/27 00:59:09;;;;;;;21.77;14.32;;;;;;;;;;5055951;28;20017;-74
2022/10/27 01:01:35;;;;;;;21.70;14.38;;;;;;;;;;5038449;28;20103;-74
2022/10/27 01:04:01;;;;;;;24.25;15.13;;;;;;;;;;5038152;28;20028;-73
2022/10/27 01:06:26;;;;;;;21.67;14.82;;;;;;;;;;5038236;28;20032;-73
2022/10/27 01:08:51;;;;;;;22.08;15.57;;;;;;;;;;5038196;28;20025;-74
2022/10/27 01:11:17;;;;;;;22.38;15.25;;;;;;;;;;5037705;28;20035;-74
2022/10/27 01:13:42;;;;;;;20.80;14.65;;;;;;;;;;5038038;28;20025;-73
2022/10/27 01:16:26;;;;;;;21.35;14.32;;;;;;;;;;5055489;28;20028;-74
2022/10/27 01:18:57;;;;;;;21.52;13.70;;;;;;;;;;5055564;28;20025;-74
2022/10/27 01:21:41;;;;;;;21.52;14.60;;;;;;;;;;5038117;28;20036;-73
2022/10/27 01:24:16;;;;;;;20.90;13.07;;;;;;;;;;5055675;28;20064;-73
2022/10/27 01:26:47;;;;;;;18.88;12.73;;;;;;;;;;5055791;28;20157;-73
2022/10/27 01:29:12;;;;;;;20.08;13.07;;;;;;;;;;5037755;28;20032;-74
2022/10/27 01:31:51;;;;;;;15.82;12.57;;;;;;;;;;5055177;28;20112;-74
2022/10/27 01:34:22;;;;;;;19.20;12.73;;;;;;;;;;5055672;28;20036;-76
2022/10/27 01:36:51;;;;;;;21.08;13.07;;;;;;;;;;5021318;28;20124;-75
2022/10/27 01:39:29;;;;;;;20.92;13.70;;;;;;;;;;5055336;28;20025;-75
2022/10/27 01:42:07;;;;;;;19.98;13.40;;;;;;;;;;5020789;28;20029;-75
2022/10/27 01:44:35;;;;;;;15.77;12.45;;;;;;;;;;5055033;28;20024;-75
2022/10/27 01:47:01;;;;;;;17.02;12.43;;;;;;;;;;5054830;28;20120;-76
2022/10/27 01:49:37;;;;;;;17.00;12.32;;;;;;;;;;5055005;28;20036;-76
2022/10/27 01:52:06;;;;;;;16.75;12.48;;;;;;;;;;5037148;28;20414;-77
2022/10/27 01:54:35;;;;;;;16.80;12.48;;;;;;;;;;5054991;28;20104;-76
2022/10/27 01:57:35;;;;;;;18.20;12.55;;;;;;;;;;5055031;28;20082;-77
2022/10/27 02:00:05;;;;;;;18.60;12.30;;;;;;;;;;5037101;28;20029;-77
2022/10/27 02:02:34;;;;;;;16.42;12.95;;;;;;;;;;5054991;28;20048;-77
2022/10/27 02:05:08;;;;;;;16.65;12.15;;;;;;;;;;5054880;28;20495;-77
2022/10/27 02:07:36;;;;;;;16.33;11.90;;;;;;;;;;5037430;28;20024;-76
2022/10/27 02:10:20;;;;;;;16.88;12.38;;;;;;;;;;5054544;28;20021;-76
2022/10/27 02:12:46;;;;;;;17.95;12.75;;;;;;;;;;5054479;28;20037;-76
2022/10/27 02:15:32;;;;;;;18.23;12.45;;;;;;;;;;5037248;28;20025;-76
2022/10/27 02:18:13;;;;;;;17.60;11.85;;;;;;;;;;5036583;28;20025;-74
2022/10/27 02:20:38;;;;;;;;;;;;;;;;;;5036928;28;20120;-74
2022/10/27 02:23:06;;;;;;;18.25;12.68;;;;;;;;;;5037034;28;20000;-74
2022/10/27 02:25:44;;;;;;;18.67;13.35;;;;;;;;;;5054820;28;20039;-75
2022/10/27 02:28:12;;;;;;;21.35;12.98;;;;;;;;;;5054771;28;20025;-74
2022/10/27 02:30:41;;;;;;;17.80;12.30;;;;;;;;;;5054356;28;20085;-76
2022/10/27 02:33:06;;;;;;;16.75;11.85;;;;;;;;;;5054610;28;20035;-77
2022/10/27 02:35:33;;;;;;;16.67;12.43;;;;;;;;;;5054515;28;20036;-77
2022/10/27 02:37:58;;;;;;;19.35;12.07;;;;;;;;;;5036505;28;20024;-75
2022/10/27 02:40:24;;;;;;;17.67;12.23;;;;;;;;;;5054712;28;20086;-76
2022/10/27 02:42:50;;;;;;;14.77;11.13;;;;;;;;;;5036376;28;20035;-75
2022/10/27 02:45:16;;;;;;;17.80;12.15;;;;;;;;;;5054346;28;20470;-74
2022/10/27 02:47:42;;;;;;;15.90;11.90;;;;;;;;;;5036246;28;20072;-76
2022/10/27 02:50:07;;;;;;;14.52;11.02;;;;;;;;;;5036508;28;20468;-76
2022/10/27 02:52:33;;;;;;;16.60;11.40;;;;;;;;;;5054396;28;20029;-75
2022/10/27 02:54:58;;;;;;;20.05;12.13;;;;;;;;;;5053838;28;20020;-75
2022/10/27 02:57:24;;;;;;;15.88;11.40;;;;;;;;;;5053873;28;20025;-75
2022/10/27 02:59:49;;;;;;;17.13;12.50;;;;;;;;;;5053830;28;20024;-76
2022/10/27 03:02:14;;;;;;;18.15;12.63;;;;;;;;;;5053620;28;20017;-76
2022/10/27 03:04:40;;;;;;;21.45;12.90;;;;;;;;;;5019492;28;20017;-76
2022/10/27 03:07:05;;;;;;;16.38;11.88;;;;;;;;;;5053598;28;20078;-76
2022/10/27 03:09:30;;;;;;;23.48;13.65;;;;;;;;;;5036293;28;20107;-74
2022/10/27 03:11:56;;;;;;;25.90;17.80;;;;;;;;;;5053480;28;20024;-74
2022/10/27 03:14:21;;;;;;;25.05;16.85;;;;;;;;;;5053780;28;20063;-74
2022/10/27 03:16:47;;;;;;;25.20;17.13;;;;;;;;;;5035865;28;20109;-74
2022/10/27 03:19:12;;;;;;;27.15;17.30;;;;;;;;;;5036113;28;20103;-72
2022/10/27 03:21:38;;;;;;;22.75;16.90;;;;;;;;;;5053455;28;20052;-75
2022/10/27 03:24:04;;;;;;;19.95;14.05;;;;;;;;;;5053569;28;20538;-73
2022/10/27 03:26:30;;;;;;;41.05;28.02;;;;;;;;;;5057339;28;20032;-73
2022/10/27 03:28:55;;;;;;;23.95;17.83;;;;;;;;;;5058118;28;20066;-75
2022/10/27 03:31:20;;;;;;;29.30;18.15;;;;;;;;;;5056852;28;20481;-74
2022/10/27 03:33:46;;;;;;;28.40;18.52;;;;;;;;;;5039550;28;20029;-74
2022/10/27 03:36:12;;;;;;;28.27;18.85;;;;;;;;;;5057462;28;20357;-72
2022/10/27 03:38:38;;;;;;;30.23;20.73;;;;;;;;;;5039570;28;20032;-76
2022/10/27 03:41:03;;;;;;;24.63;16.67;;;;;;;;;;5057546;28;20024;-75
2022/10/27 03:43:28;;;;;;;28.45;17.80;;;;;;;;;;5058021;28;20009;-74
2022/10/27 03:45:54;;;;;;;31.77;19.35;;;;;;;;;;5039546;28;20067;-76
2022/10/27 03:48:19;;;;;;;34.17;19.00;;;;;;;;;;5057220;28;20144;-76
2022/10/27 03:50:46;;;;;;;37.97;20.65;;;;;;;;;;5039762;28;20029;-76
2022/10/27 03:53:12;;;;;;;39.33;20.67;;;;;;;;;;5057469;28;20103;-74
2022/10/27 03:55:37;;;;;;;42.10;23.20;;;;;;;;;;5039703;28;20119;-75
2022/10/27 03:58:02;;;;;;;38.90;22.38;;;;;;;;;;5057400;28;20036;-75
2022/10/27 04:00:30;;;;;;;50.38;24.45;;;;;;;;;;5039768;28;20037;-74
2022/10/27 04:02:55;;;;;;;45.67;26.50;;;;;;;;;;5039496;28;20021;-73
2022/10/27 04:05:22;;;;;;;48.28;24.23;;;;;;;;;;5057287;28;20033;-77
2022/10/27 04:07:47;;;;;;;47.13;24.48;;;;;;;;;;5022227;28;20029;-77
2022/10/27 04:10:12;;;;;;;34.42;21.33;;;;;;;;;;5056706;28;20032;-77
2022/10/27 04:12:46;;;;;;;36.20;22.30;;;;;;;;;;5056829;28;20103;-77
2022/10/27 04:15:11;;;;;;;38.72;22.13;;;;;;;;;;5056709;28;20028;-76
2022/10/27 04:17:37;;;;;;;39.28;23.50;;;;;;;;;;5021589;28;20017;-75
2022/10/27 04:20:02;;;;;;;39.28;24.08;;;;;;;;;;5056482;28;20112;-76
2022/10/27 04:22:28;;;;;;;43.22;25.30;;;;;;;;;;5056198;28;20086;-76
2022/10/27 04:24:53;;;;;;;43.65;25.95;;;;;;;;;;5055996;28;20048;-76
2022/10/27 04:27:18;;;;;;;51.05;28.02;;;;;;;;;;5037165;28;20017;-74
2022/10/27 04:29:44;;;;;;;43.10;26.85;;;;;;;;;;5054754;28;20029;-75
2022/10/27 04:32:09;;;;;;;44.60;25.88;;;;;;;;;;5055667;28;20104;-74
2022/10/27 04:34:34;;;;;;;40.88;25.13;;;;;;;;;;5055703;28;20370;-72
2022/10/27 04:37:00;;;;;;;46.65;26.73;;;;;;;;;;5055523;28;20415;-76
2022/10/27 04:39:25;;;;;;;35.47;22.08;;;;;;;;;;5037322;28;20035;-77
2022/10/27 04:41:50;;;;;;;33.75;22.27;;;;;;;;;;5054983;28;20052;-75
2022/10/27 04:44:16;;;;;;;36.55;21.33;;;;;;;;;;5053416;28;20029;-74
2022/10/27 04:46:41;;;;;;;33.78;20.90;;;;;;;;;;5035044;28;20028;-74
2022/10/27 04:49:07;;;;;;;36.80;22.10;;;;;;;;;;5053347;28;20070;-74
2022/10/27 04:51:32;;;;;;;32.70;21.33;;;;;;;;;;5053090;28;20033;-75
2022/10/27 04:53:57;;;;;;;34.15;21.15;;;;;;;;;;5052925;28;20484;-76
2022/10/27 04:56:23;;;;;;;35.08;20.95;;;;;;;;;;5035009;28;20056;-76
2022/10/27 04:58:48;;;;;;;37.83;22.00;;;;;;;;;;5052892;28;20021;-76
2022/10/27 05:01:14;;;;;;;35.53;21.17;;;;;;;;;;5053143;28;20154;-73
2022/10/27 05:03:39;;;;;;;35.10;22.13;;;;;;;;;;5037110;28;20037;-75
2022/10/27 05:06:05;;;;;;;39.28;22.05;;;;;;;;;;5055130;28;20032;-77
2022/10/27 05:08:30;;;;;;;38.47;23.70;;;;;;;;;;5036956;28;20099;-74
2022/10/27 05:10:56;;;;;;;40.97;23.38;;;;;;;;;;5054502;28;20025;-75
2022/10/27 05:13:21;;;;;;;36.83;23.17;;;;;;;;;;5036688;28;20083;-74
2022/10/27 05:15:52;;;;;;;41.97;23.60;;;;;;;;;;5036654;28;20029;-74
2022/10/27 05:18:17;;;;;;;;;;;;;;;;;;5037172;28;20495;-75
2022/10/27 05:20:42;;;;;;;42.07;23.47;;;;;;;;;;5054213;28;19904;-75
2022/10/27 05:23:08;;;;;;;38.85;22.67;;;;;;;;;;5036471;28;20083;-75
2022/10/27 05:25:33;;;;;;;41.72;23.52;;;;;;;;;;5054250;28;20358;-74
2022/10/27 05:28:03;;;;;;;43.40;23.70;;;;;;;;;;5054198;28;20025;-74
2022/10/27 05:30:28;;;;;;;41.05;22.52;;;;;;;;;;5036273;28;20024;-72
2022/10/27 05:32:53;;;;;;;44.70;24.95;;;;;;;;;;5054131;28;20392;-73
2022/10/27 05:35:19;;;;;;;44.33;23.88;;;;;;;;;;5053753;28;20032;-74
2022/10/27 05:37:45;;;;;;;43.35;23.60;;;;;;;;;;5054008;28;20082;-73
2022/10/27 05:40:10;;;;;;;45.83;24.50;;;;;;;;;;5054027;28;20021;-73
2022/10/27 05:42:36;;;;;;;46.20;24.33;;;;;;;;;;5053837;28;20158;-73
2022/10/27 05:45:01;;;;;;;45.60;24.95;;;;;;;;;;5053941;28;20034;-74
2022/10/27 05:47:27;;;;;;;42.10;24.45;;;;;;;;;;5053012;28;20048;-73
2022/10/27 05:49:52;;;;;;;42.28;24.88;;;;;;;;;;5053747;28;20084;-73
2022/10/27 05:52:17;;;;;;;39.35;23.67;;;;;;;;;;5035924;28;20025;-74
2022/10/27 05:54:43;;;;;;;36.40;21.65;;;;;;;;;;5053812;28;20037;-73
2022/10/27 05:57:08;;;;;;;36.25;23.90;;;;;;;;;;5035791;28;20051;-74
2022/10/27 05:59:34;;;;;;;39.13;23.30;;;;;;;;;;5054636;28;20021;-73
2022/10/27 06:01:59;;;;;;;36.80;22.73;;;;;;;;;;5054662;28;20460;-73
2022/10/27 06:04:24;;;;;;;37.50;22.73;;;;;;;;;;5036909;28;20036;-73
2022/10/27 06:06:49;;;;;;;32.17;19.75;;;;;;;;;;5054722;28;20033;-73
2022/10/27 06:09:15;;;;;;;38.40;25.00;;;;;;;;;;5020557;28;20476;-74
2022/10/27 06:11:40;;;;;;;35.28;22.52;;;;;;;;;;5054191;28;20183;-73
2022/10/27 06:14:05;;;;;;;36.78;23.42;;;;;;;;;;5053413;28;20033;-73
2022/10/27 06:16:31;;;;;;;36.05;22.98;;;;;;;;;;5053767;28;20025;-73
2022/10/27 06:18:56;;;;;;;37.42;20.48;;;;;;;;;;5053438;28;20086;-74
2022/10/27 06:21:22;;;;;;;29.55;17.83;;;;;;;;;;5036118;28;20021;-75
2022/10/27 06:23:48;;;;;;;33.55;20.30;;;;;;;;;;5053914;28;20021;-74
2022/10/27 06:26:13;;;;;;;37.20;20.27;;;;;;;;;;5053912;28;20484;-75
2022/10/27 06:28:38;;;;;;;33.92;19.45;;;;;;;;;;5054107;28;20056;-75
2022/10/27 06:31:04;;;;;;;36.63;20.98;;;;;;;;;;5054377;28;20029;-75
2022/10/27 06:33:29;;;;;;;35.53;20.02;;;;;;;;;;5053886;28;20365;-75
2022/10/27 06:35:55;;;;;;;30.88;17.30;;;;;;;;;;5053966;28;20063;-75
2022/10/27 06:38:20;;;;;;;34.00;19.17;;;;;;;;;;5035809;28;20029;-75
2022/10/27 06:40:45;;;;;;;36.20;19.70;;;;;;;;;;5036147;28;20017;-75
2022/10/27 06:43:11;;;;;;;32.55;18.33;;;;;;;;;;5053268;28;20024;-75
2022/10/27 06:45:37;;;;;;;30.38;17.92;;;;;;;;;;5053806;28;20090;-75
2022/10/27 06:48:04;;;;;;;31.95;18.27;;;;;;;;;;5053663;28;20492;-75
2022/10/27 06:50:31;;;;;;;33.20;17.40;;;;;;;;;;5054020;28;20045;-73
2022/10/27 06:52:57;;;;;;;33.40;18.63;;;;;;;;;;5053518;28;20029;-74
2022/10/27 06:55:23;;;;;;;31.73;18.45;;;;;;;;;;5053617;28;20538;-74
2022/10/27 06:57:48;;;;;;;30.05;17.55;;;;;;;;;;5053563;28;20025;-74
2022/10/27 07:00:14;;;;;;;25.02;15.60;;;;;;;;;;5053018;28;20035;-75
2022/10/27 07:02:39;;;;;;;19.58;13.82;;;;;;;;;;5052779;28;20029;-74
2022/10/27 07:05:05;;;;;;;16.67;12.18;;;;;;;;;;5053470;28;20074;-75
2022/10/27 07:07:30;;;;;;;21.33;14.93;;;;;;;;;;5053694;28;20052;-73
2022/10/27 07:09:55;;;;;;;27.40;16.50;;;;;;;;;;5035736;28;20020;-74
2022/10/27 07:12:21;;;;;;;25.58;16.02;;;;;;;;;;5035742;28;20037;-75
2022/10/27 07:14:46;;;;;;;26.85;15.82;;;;;;;;;;5053389;28;20020;-74
2022/10/27 07:17:12;;;;;;;30.67;18.83;;;;;;;;;;5053425;28;20452;-75
2022/10/27 07:19:37;;;;;;;31.90;19.10;;;;;;;;;;5035248;28;20020;-75
2022/10/27 07:22:02;;;;;;;33.83;20.77;;;;;;;;;;5052853;28;20037;-75
2022/10/27 07:24:28;;;;;;;38.22;21.73;;;;;;;;;;5018982;28;20457;-74
2022/10/27 07:26:53;;;;;;;39.55;21.25;;;;;;;;;;5035581;28;20029;-74
2022/10/27 07:29:18;;;;;;;35.53;20.50;;;;;;;;;;5035532;28;20021;-74
2022/10/27 07:31:44;;;;;;;33.08;19.40;;;;;;;;;;5018981;28;20032;-74
2022/10/27 07:34:10;;;;;;;28.48;17.05;;;;;;;;;;5053192;28;20079;-74
2022/10/27 07:36:35;;;;;;;24.17;16.08;;;;;;;;;;5035532;28;20370;-74
2022/10/27 07:39:01;;;;;;;33.17;19.15;;;;;;;;;;5053199;28;20044;-75
2022/10/27 07:41:26;;;;;;;37.75;19.05;;;;;;;;;;5053213;28;20435;-74
2022/10/27 07:43:51;;;;;;;28.02;18.30;;;;;;;;;;5053162;28;20100;-74
2022/10/27 07:46:17;;;;;;;23.63;13.70;;;;;;;;;;5053167;28;20065;-75
2022/10/27 07:48:42;;;;;;;29.80;17.85;;;;;;;;;;5035036;28;20045;-74
2022/10/27 07:51:08;;;;;;;29.33;17.27;;;;;;;;;;5035316;28;20029;-74
2022/10/27 07:53:33;;;;;;;22.27;13.75;;;;;;;;;;5018678;28;20032;-75
2022/10/27 07:55:58;;;;;;;27.25;14.55;;;;;;;;;;5053028;28;20108;-74
2022/10/27 07:58:24;;;;;;;29.77;16.45;;;;;;;;;;5052774;28;20048;-74
2022/10/27 08:00:49;;;;;;;31.40;18.63;;;;;;;;;;5035128;28;20476;-74
2022/10/27 08:03:16;;;;;;;30.52;17.60;;;;;;;;;;5035163;28;20162;-75
2022/10/27 08:05:42;;;;;;;27.40;15.95;;;;;;;;;;5035114;28;20037;-73
2022/10/27 08:08:07;;;;;;;33.05;19.80;;;;;;;;;;5035090;28;20028;-73
2022/10/27 08:10:34;;;;;;;31.25;18.48;;;;;;;;;;5052861;28;20388;-73
2022/10/27 08:12:59;;;;;;;32.17;18.08;;;;;;;;;;5056432;28;20017;-73
2022/10/27 08:15:25;;;;;;;31.55;18.65;;;;;;;;;;5055116;28;20431;-74
2022/10/27 08:17:51;;;;;;;34.42;19.67;;;;;;;;;;5037522;28;20017;-72
2022/10/27 08:20:17;;;;;;;33.42;19.23;;;;;;;;;;5037621;28;20067;-74
2022/10/27 08:22:42;;;;;;;33.70;19.38;;;;;;;;;;5037616;28;20060;-74
2022/10/27 08:25:07;;;;;;;36.10;19.90;;;;;;;;;;5055015;28;20032;-74
2022/10/27 08:27:33;;;;;;;41.65;21.50;;;;;;;;;;5055296;28;20092;-74
2022/10/27 08:29:58;;;;;;;39.92;21.27;;;;;;;;;;5037575;28;20385;-74
2022/10/27 08:32:23;;;;;;;36.92;20.05;;;;;;;;;;5055337;28;20504;-73
2022/10/27 08:34:49;;;;;;;36.53;20.50;;;;;;;;;;5036972;28;20389;-74
2022/10/27 08:37:14;;;;;;;38.60;21.27;;;;;;;;;;5037090;28;20036;-73
2022/10/27 08:39:40;;;;;;;39.60;21.15;;;;;;;;;;5055103;28;20029;-74
2022/10/27 08:42:09;;;;;;;40.75;20.85;;;;;;;;;;5037192;28;20017;-74
2022/10/27 08:44:50;;;;;;;38.33;21.63;;;;;;;;;;5054794;28;20048;-74
2022/10/27 08:47:15;;;;;;;;;;;;;;;;;;5037562;28;20059;-74
2022/10/27 08:49:43;;;;;;;41.85;21.23;;;;;;;;;;5037063;28;19904;-74
2022/10/27 08:52:27;;;;;;;45.17;22.02;;;;;;;;;;5037049;28;20052;-74
2022/10/27 08:54:56;;;;;;;39.22;20.20;;;;;;;;;;5054723;28;20040;-74
2022/10/27 08:57:23;;;;;;;43.08;22.00;;;;;;;;;;5054871;28;20102;-75
2022/10/27 08:59:53;;;;;;;36.88;19.80;;;;;;;;;;5037023;28;20385;-74
2022/10/27 09:02:25;;;;;;;32.60;17.40;;;;;;;;;;5055039;28;20019;-73
2022/10/27 09:05:03;;;;;;;40.95;20.20;;;;;;;;;;5036821;28;20037;-74
2022/10/27 09:07:38;;;;;;;27.27;15.60;;;;;;;;;;5020237;28;20132;-74
2022/10/27 09:10:10;;;;;;;34.92;19.27;;;;;;;;;;5054363;28;20029;-74
2022/10/27 09:12:41;;;;;;;37.35;20.00;;;;;;;;;;5036693;28;20036;-74
2022/10/27 09:15:10;;;;;;;34.88;18.35;;;;;;;;;;5054385;28;20092;-74
2022/10/27 09:17:38;;;;;;;31.25;17.30;;;;;;;;;;5054470;28;20435;-74
2022/10/27 09:20:15;;;;;;;40.85;21.35;;;;;;;;;;5054155;28;20029;-74
2022/10/27 09:22:41;;;;;;;39.83;21.50;;;;;;;;;;5053259;28;20025;-74
2022/10/27 09:25:12;;;;;;;35.35;19.80;;;;;;;;;;5036501;28;20029;-74
2022/10/27 09:27:40;;;;;;;37.25;20.30;;;;;;;;;;5054256;28;20021;-74
2022/10/27 09:30:05;;;;;;;41.75;22.17;;;;;;;;;;5053934;28;20013;-73
2022/10/27 09:32:32;;;;;;;38.92;21.05;;;;;;;;;;5054199;28;20383;-73
2022/10/27 09:35:02;;;;;;;24.98;15.77;;;;;;;;;;5054030;28;20532;-74
2022/10/27 09:37:28;;;;;;;32.40;19.45;;;;;;;;;;5054109;28;20021;-74
2022/10/27 09:39:54;;;;;;;33.30;17.75;;;;;;;;;;5053869;28;20013;-74
2022/10/27 09:42:19;;;;;;;34.72;20.15;;;;;;;;;;5036112;28;20442;-74
2022/10/27 09:44:55;;;;;;;34.20;20.27;;;;;;;;;;5053903;28;20546;-74
2022/10/27 09:47:22;;;;;;;36.92;21.42;;;;;;;;;;5035493;28;20044;-75
2022/10/27 09:49:47;;;;;;;40.70;22.15;;;;;;;;;;5053853;28;20032;-75
2022/10/27 09:52:22;;;;;;;46.50;23.25;;;;;;;;;;5053987;28;20029;-73
2022/10/27 09:54:54;;;;;;;38.75;22.60;;;;;;;;;;5053397;28;20457;-74
2022/10/27 09:57:24;;;;;;;26.13;15.40;;;;;;;;;;5035961;28;20025;-74
2022/10/27 09:59:51;;;;;;;41.97;22.58;;;;;;;;;;5053378;28;20013;-73
2022/10/27 10:02:25;;;;;;;39.05;20.02;;;;;;;;;;5035719;28;20119;-74
2022/10/27 10:04:51;;;;;;;35.78;19.42;;;;;;;;;;5053480;28;20024;-74
2022/10/27 10:07:34;;;;;;;29.80;16.88;;;;;;;;;;5053225;28;20586;-74
2022/10/27 10:10:20;;;;;;;30.17;17.17;;;;;;;;;;5051749;28;20389;-73
2022/10/27 10:12:45;;;;;;;37.65;18.38;;;;;;;;;;5035589;28;20037;-74
2022/10/27 10:15:10;;;;;;;23.00;14.02;;;;;;;;;;5034940;28;20020;-74
2022/10/27 10:17:49;;;;;;;23.98;14.77;;;;;;;;;;5052894;28;20108;-74
2022/10/27 10:20:38;;;;;;;26.25;15.52;;;;;;;;;;5052988;28;20056;-74
2022/10/27 10:23:10;;;;;;;29.88;17.33;;;;;;;;;;5040213;28;20477;-74
2022/10/27 10:25:41;;;;;;;38.83;22.52;;;;;;;;;;5035011;28;20029;-74
2022/10/27 10:28:06;;;;;;;;;;;;;;;;;;5035512;28;20043;-75
2022/10/27 10:30:33;;;;;;;36.17;20.33;;;;;;;;;;5053088;28;19904;-74
2022/10/27 10:32:59;;;;;;;30.13;17.48;;;;;;;;;;5052695;28;20279;-74
2022/10/27 10:35:43;;;;;;;34.63;18.63;;;;;;;;;;5052235;28;20426;-75
2022/10/27 10:38:25;;;;;;;31.40;17.98;;;;;;;;;;5034813;28;20021;-74
2022/10/27 10:40:56;;;;;;;29.50;15.77;;;;;;;;;;5034777;28;20514;-75
2022/10/27 10:43:21;;;;;;;32.17;16.98;;;;;;;;;;5053156;28;20074;-75
2022/10/27 10:45:49;;;;;;;27.50;16.63;;;;;;;;;;5053000;28;20100;-74
2022/10/27 10:48:14;;;;;;;34.28;18.42;;;;;;;;;;5052768;28;20401;-75
2022/10/27 10:50:46;;;;;;;28.45;16.58;;;;;;;;;;5052710;28;20040;-75
2022/10/27 10:53:23;;;;;;;25.33;14.88;;;;;;;;;;5052554;28;20044;-75
2022/10/27 10:55:48;;;;;;;26.52;15.82;;;;;;;;;;5053118;28;20029;-75
2022/10/27 10:58:16;;;;;;;24.50;14.88;;;;;;;;;;5053283;28;20029;-75
2022/10/27 11:00:52;;;;;;;24.33;14.75;;;;;;;;;;5052607;28;20032;-74
2022/10/27 11:03:18;;;;;;;24.58;14.95;;;;;;;;;;5052524;28;20036;-75
2022/10/27 11:05:51;;;;;;;19.95;12.55;;;;;;;;;;5052510;28;20025;-75
2022/10/27 11:08:21;;;;;;;25.75;15.57;;;;;;;;;;5052432;28;20525;-75
2022/10/27 11:10:47;;;;;;;27.17;15.88;;;;;;;;;;5034570;28;20116;-74
2022/10/27 11:13:22;;;;;;;29.70;16.20;;;;;;;;;;5051894;28;20103;-73
2022/10/27 11:15:51;;;;;;;24.77;14.45;;;;;;;;;;5052280;28;20040;-75
2022/10/27 11:18:20;;;;;;;22.83;14.57;;;;;;;;;;5052335;28;20040;-74
2022/10/27 11:20:47;;;;;;;23.00;14.57;;;;;;;;;;5052365;28;20489;-74
2022/10/27 11:23:18;;;;;;;21.15;13.05;;;;;;;;;;5052282;28;20410;-74
2022/10/27 11:25:44;;;;;;;22.20;13.27;;;;;;;;;;5052316;28;20109;-75
2022/10/27 11:28:32;;;;;;;23.38;13.30;;;;;;;;;;5052257;28;20517;-75
2022/10/27 11:31:08;;;;;;;25.33;14.50;;;;;;;;;;5039032;28;20052;-75
2022/10/27 11:33:33;;;;;;;23.98;14.65;;;;;;;;;;5052171;28;20079;-75
2022/10/27 11:36:05;;;;;;;19.42;12.88;;;;;;;;;;5052177;28;20021;-76
2022/10/27 11:38:31;;;;;;;21.88;13.48;;;;;;;;;;5052313;28;20025;-75
2022/10/27 11:41:02;;;;;;;20.67;12.70;;;;;;;;;;5052302;28;20555;-75
2022/10/27 11:43:31;;;;;;;20.40;11.85;;;;;;;;;;5052048;28;20086;-75
2022/10/27 11:46:07;;;;;;;17.33;9.40;;;;;;;;;;5052822;28;20021;-75
2022/10/27 11:48:42;;;;;;;16.17;9.55;;;;;;;;;;5055764;28;20061;-76
2022/10/27 11:51:16;;;;;;;23.48;13.13;;;;;;;;;;5055738;28;20033;-76
2022/10/27 11:53:42;;;;;;;26.25;13.25;;;;;;;;;;5037979;28;20495;-76
2022/10/27 11:56:26;;;;;;;24.17;13.93;;;;;;;;;;5055970;28;20024;-76
2022/10/27 11:58:56;;;;;;;24.35;12.00;;;;;;;;;;5055928;28;20029;-76
2022/10/27 12:01:22;;;;;;;;;;;;;;;;;;5056378;28;20021;-76
2022/10/27 12:04:06;;;;;;;27.80;15.18;;;;;;;;;;5056156;28;20519;-76
2022/10/27 12:06:52;;;;;;;22.50;13.57;;;;;;;;;;5055846;28;20021;-75
2022/10/27 12:09:27;;;;;;;25.10;14.68;;;;;;;;;;5055131;28;20095;-74
2022/10/27 12:12:02;;;;;;;26.25;13.90;;;;;;;;;;5055410;28;20021;-73
2022/10/27 12:14:51;;;;;;;24.60;14.10;;;;;;;;;;5038229;28;20072;-73
2022/10/27 12:17:31;;;;;;;19.27;11.70;;;;;;;;;;5056253;28;20025;-76
2022/10/27 12:19:57;;;;;;;14.75;9.73;;;;;;;;;;5056780;28;20358;-74
2022/10/27 12:22:42;;;;;;;21.65;11.70;;;;;;;;;;5038768;28;20025;-73
2022/10/27 12:25:10;;;;;;;19.05;10.60;;;;;;;;;;5038319;28;20037;-73
2022/10/27 12:27:45;;;;;;;19.77;10.23;;;;;;;;;;5056493;28;20109;-73
2022/10/27 12:30:12;;;;;;;15.13;8.65;;;;;;;;;;5056508;28;20036;-77
2022/10/27 12:32:59;;;;;;;16.73;9.65;;;;;;;;;;5055698;22;20042;-74
2022/10/27 12:35:24;;;;;;;19.85;9.95;;;;;;;;;;5036309;28;20033;-73
2022/10/27 12:37:50;;;;;;;16.25;8.68;;;;;;;;;;5018525;28;20071;-74
2022/10/27 12:40:24;;;;;;;10.05;7.28;;;;;;;;;;5018649;28;20104;-73
2022/10/27 12:43:06;;;;;;;7.25;4.63;;;;;;;;;;5036628;28;20355;-73
2022/10/27 12:45:49;;;;;;;5.30;4.30;;;;;;;;;;5036289;28;20037;-72
2022/10/27 12:48:33;;;;;;;6.93;5.60;;;;;;;;;;5018236;28;20036;-73
2022/10/27 12:51:02;;;;;;;6.70;4.72;;;;;;;;;;5051599;28;20401;-72
2022/10/27 12:53:36;;;;;;;6.28;4.65;;;;;;;;;;5036256;28;20029;-71
2022/10/27 12:56:04;;;;;;;5.78;5.28;;;;;;;;;;5035941;28;20033;-72
2022/10/27 12:58:46;;;;;;;5.95;4.40;;;;;;;;;;5035478;28;20013;-72
2022/10/27 13:01:14;;;;;;;9.65;6.32;;;;;;;;;;5035677;28;20373;-73
2022/10/27 13:03:39;;;;;;;9.68;5.82;;;;;;;;;;5035676;28;20018;-71
2022/10/27 13:06:34;;;;;;;8.93;6.40;;;;;;;;;;5035226;28;20022;-73
2022/10/27 13:09:18;;;;;;;9.00;6.50;;;;;;;;;;4964877;28;20130;-73
2022/10/27 13:11:43;;;;;;;7.90;5.82;;;;;;;;;;5035297;28;20032;-73
2022/10/27 13:14:08;;;;;;;10.93;6.03;;;;;;;;;;5034768;28;20017;-71
2022/10/27 13:16:53;;;;;;;11.38;5.95;;;;;;;;;;5017294;28;20399;-72
2022/10/27 13:19:24;;;;;;;9.18;6.25;;;;;;;;;;5051050;28;20029;-71
2022/10/27 13:22:12;;;;;;;14.93;6.95;;;;;;;;;;5017758;28;20067;-73
2022/10/27 13:24:50;;;;;;;9.88;6.40;;;;;;;;;;5035284;28;20044;-73
2022/10/27 13:27:31;;;;;;;16.20;9.32;;;;;;;;;;5017139;28;20033;-72
2022/10/27 13:29:56;;;;;;;;;;;;;;;;;;5036315;28;20044;-73
2022/10/27 13:32:22;;;;;;;14.93;8.23;;;;;;;;;;5035731;28;19909;-73
2022/10/27 13:34:59;;;;;;;14.70;8.25;;;;;;;;;;5035427;28;20039;-77
2022/10/27 13:37:40;;;;;;;14.10;8.48;;;;;;;;;;5035589;28;20034;-77
2022/10/27 13:40:18;;;;;;;15.00;9.60;;;;;;;;;;5033952;28;20053;-73
2022/10/27 13:42:50;;;;;;;12.85;7.55;;;;;;;;;;5016265;28;20366;-72
2022/10/27 13:45:33;;;;;;;13.80;8.05;;;;;;;;;;5016462;28;20056;-74
2022/10/27 13:48:13;;;;;;;13.32;9.18;;;;;;;;;;5015358;28;20470;-73
2022/10/27 13:50:39;;;;;;;16.13;8.73;;;;;;;;;;5033070;28;20496;-72
2022/10/27 13:53:14;;;;;;;13.60;8.00;;;;;;;;;;5032952;28;20040;-73
2022/10/27 13:55:43;;;;;;;14.52;8.70;;;;;;;;;;5033094;28;20087;-73
2022/10/27 13:58:16;;;;;;;15.30;8.73;;;;;;;;;;5015527;28;20473;-72
2022/10/27 14:00:42;;;;;;;14.32;7.97;;;;;;;;;;5033560;28;20029;-73
2022/10/27 14:03:11;;;;;;;13.15;8.35;;;;;;;;;;5017221;28;20075;-71
2022/10/27 14:05:44;;;;;;;15.48;8.23;;;;;;;;;;5000685;28;20401;-73
2022/10/27 14:08:18;;;;;;;14.48;9.00;;;;;;;;;;5034650;28;20034;-72
2022/10/27 14:10:43;;;;;;;14.50;9.45;;;;;;;;;;5016582;28;20045;-73
2022/10/27 14:13:29;;;;;;;17.40;10.30;;;;;;;;;;5016901;28;20021;-73
2022/10/27 14:15:56;;;;;;;13.60;7.97;;;;;;;;;;5033873;28;20499;-71
2022/10/27 14:18:32;;;;;;;13.15;8.25;;;;;;;;;;5034610;28;20025;-74
2022/10/27 14:21:01;;;;;;;12.00;7.90;;;;;;;;;;5017191;28;20072;-73
2022/10/27 14:23:27;;;;;;;14.32;9.00;;;;;;;;;;5016702;28;20025;-73
2022/10/27 14:25:52;;;;;;;13.20;8.15;;;;;;;;;;5034355;28;20049;-74
2022/10/27 14:28:19;;;;;;;14.55;8.30;;;;;;;;;;5034319;28;20022;-74
2022/10/27 14:30:45;;;;;;;17.05;8.80;;;;;;;;;;5034275;28;20446;-72